createdAt,value
2022-09-23T00:01:01.898Z,10.93
2022-09-23T00:03:28.093Z,10.95
2022-09-23T00:05:54.220Z,10.95
2022-09-23T00:08:20.359Z,10.94
2022-09-23T00:10:46.491Z,10.90
2022-09-23T00:13:12.632Z,10.87
2022-09-23T00:15:38.751Z,10.85
2022-09-23T00:18:04.889Z,10.89
2022-09-23T00:20:31.010Z,10.93
2022-09-23T00:22:57.143Z,10.93
2022-09-23T00:25:23.282Z,10.93
2022-09-23T00:27:49.400Z,10.97
2022-09-23T00:30:15.541Z,10.98
2022-09-23T00:32:41.683Z,11.01
2022-09-23T00:35:07.810Z,11.09
2022-09-23T00:37:33.968Z,11.15
2022-09-23T00:40:00.084Z,11.14
2022-09-23T00:42:26.209Z,11.19
2022-09-23T00:44:52.356Z,11.14
2022-09-23T00:47:18.479Z,11.13
2022-09-23T00:49:44.591Z,11.12
2022-09-23T00:52:10.726Z,11.09
2022-09-23T00:54:36.851Z,11.05
2022-09-23T00:57:02.987Z,10.96
2022-09-23T00:59:29.162Z,10.99
2022-09-23T01:01:55.602Z,10.99
2022-09-23T01:04:21.778Z,10.98
2022-09-23T01:06:47.901Z,11.00
2022-09-23T01:09:14.019Z,10.99
2022-09-23T01:11:40.166Z,11.00
2022-09-23T01:14:06.292Z,11.03
2022-09-23T01:16:32.525Z,11.01
2022-09-23T01:18:58.703Z,10.93
2022-09-23T01:21:24.832Z,10.89
2022-09-23T01:23:50.985Z,10.77
2022-09-23T01:26:17.088Z,10.71
2022-09-23T01:28:43.218Z,10.62
2022-09-23T01:31:09.419Z,10.58
2022-09-23T01:33:35.649Z,10.51
2022-09-23T01:36:01.762Z,10.47
2022-09-23T01:38:27.991Z,10.40
2022-09-23T01:40:54.147Z,10.32
2022-09-23T01:43:20.272Z,10.25
2022-09-23T01:45:46.416Z,10.18
2022-09-23T01:48:12.541Z,10.12
2022-09-23T01:50:38.707Z,10.09
2022-09-23T01:53:04.820Z,10.03
2022-09-23T01:55:30.964Z,9.93
2022-09-23T01:57:57.107Z,9.70
2022-09-23T02:00:23.247Z,9.66
2022-09-23T02:02:49.518Z,9.56
2022-09-23T02:05:15.747Z,9.51
2022-09-23T02:07:41.890Z,9.42
2022-09-23T02:10:08.013Z,9.38
2022-09-23T02:12:34.154Z,9.27
2022-09-23T02:15:00.274Z,9.30
2022-09-23T02:17:26.408Z,9.14
2022-09-23T02:19:52.549Z,9.14
2022-09-23T02:22:18.657Z,9.04
2022-09-23T02:24:44.812Z,9.00
2022-09-23T02:27:10.951Z,8.89
2022-09-23T02:29:37.067Z,8.81
2022-09-23T02:32:03.255Z,8.82
2022-09-23T02:34:29.417Z,8.82
2022-09-23T02:36:55.560Z,8.74
2022-09-23T02:39:21.662Z,8.72
2022-09-23T02:41:47.797Z,8.70
2022-09-23T02:44:13.922Z,8.66
2022-09-23T02:46:40.015Z,8.64
2022-09-23T02:49:06.149Z,8.63
2022-09-23T02:51:32.264Z,8.59
2022-09-23T02:53:58.570Z,8.53
2022-09-23T02:56:24.721Z,8.42
2022-09-23T02:58:50.830Z,8.34
2022-09-23T03:01:16.997Z,8.35
2022-09-23T03:03:43.158Z,8.34
2022-09-23T03:06:09.317Z,8.29
2022-09-23T03:08:35.429Z,8.23
2022-09-23T03:11:01.596Z,8.17
2022-09-23T03:13:29.451Z,8.13
2022-09-23T03:15:55.763Z,8.12
2022-09-23T03:18:21.896Z,8.03
2022-09-23T03:20:48.013Z,8.03
2022-09-23T03:23:14.141Z,7.99
2022-09-23T03:25:40.276Z,7.97
2022-09-23T03:28:06.400Z,7.98
2022-09-23T03:30:32.518Z,7.90
2022-09-23T03:32:58.635Z,7.90
2022-09-23T03:35:24.773Z,7.88
2022-09-23T03:37:50.904Z,7.86
2022-09-23T03:40:17.121Z,7.79
2022-09-23T03:42:43.259Z,7.81
2022-09-23T03:45:09.358Z,7.79
2022-09-23T03:47:35.498Z,7.77
2022-09-23T03:50:01.618Z,7.76
2022-09-23T03:52:27.740Z,7.70
2022-09-23T03:54:53.893Z,7.69
2022-09-23T03:57:20.037Z,7.63
2022-09-23T03:59:46.169Z,7.58
2022-09-23T04:02:12.335Z,7.53
2022-09-23T04:04:38.496Z,7.53
2022-09-23T04:07:04.613Z,7.51
2022-09-23T04:09:30.743Z,7.51
2022-09-23T04:11:56.884Z,7.54
2022-09-23T04:14:23.003Z,7.53
2022-09-23T04:16:49.175Z,7.53
2022-09-23T04:19:15.345Z,7.54
2022-09-23T04:21:41.485Z,7.53
2022-09-23T04:24:07.628Z,7.43
2022-09-23T04:26:33.752Z,7.37
2022-09-23T04:29:00.020Z,7.26
2022-09-23T04:31:26.313Z,7.18
2022-09-23T04:33:52.495Z,7.06
2022-09-23T04:36:18.636Z,7.01
2022-09-23T04:38:44.740Z,6.97
2022-09-23T04:41:10.866Z,6.93
2022-09-23T04:43:37.012Z,6.89
2022-09-23T04:46:03.128Z,6.84
2022-09-23T04:48:29.231Z,6.85
2022-09-23T04:50:55.377Z,6.80
2022-09-23T04:53:21.521Z,6.88
2022-09-23T04:55:47.663Z,6.85
2022-09-23T04:58:13.858Z,6.86
2022-09-23T05:00:40.058Z,6.86
2022-09-23T05:03:06.261Z,6.96
2022-09-23T05:05:32.447Z,7.05
2022-09-23T05:07:58.565Z,7.04
2022-09-23T05:10:24.699Z,7.12
2022-09-23T05:12:56.343Z,7.15
2022-09-23T05:15:23.299Z,7.22
2022-09-23T05:17:49.445Z,7.14
2022-09-23T05:20:15.557Z,7.15
2022-09-23T05:22:41.676Z,7.10
2022-09-23T05:25:07.821Z,7.09
2022-09-23T05:27:33.969Z,7.06
2022-09-23T05:30:00.104Z,7.05
2022-09-23T05:32:26.237Z,7.07
2022-09-23T05:34:52.369Z,7.04
2022-09-23T05:37:18.497Z,7.11
2022-09-23T05:39:44.644Z,7.07
2022-09-23T05:42:10.770Z,7.08
2022-09-23T05:44:36.901Z,7.07
2022-09-23T05:47:03.114Z,7.10
2022-09-23T05:49:48.205Z,7.15
2022-09-23T05:52:15.412Z,7.24
2022-09-23T05:54:41.528Z,7.39
2022-09-23T05:57:07.670Z,7.45
2022-09-23T05:59:33.841Z,7.56
2022-09-23T06:02:00.054Z,7.65
2022-09-23T06:04:26.228Z,7.79
2022-09-23T06:06:52.357Z,7.88
2022-09-23T06:09:18.512Z,8.04
2022-09-23T06:11:44.642Z,8.19
2022-09-23T06:14:10.757Z,8.39
2022-09-23T06:16:36.894Z,8.66
2022-09-23T06:19:05.441Z,8.87
2022-09-23T06:21:32.272Z,9.12
2022-09-23T06:23:58.412Z,9.34
2022-09-23T06:26:24.564Z,9.61
2022-09-23T06:28:50.677Z,9.82
2022-09-23T06:31:16.902Z,9.99
2022-09-23T06:33:43.068Z,10.16
2022-09-23T06:36:09.234Z,10.27
2022-09-23T06:38:35.437Z,10.43
2022-09-23T06:41:01.559Z,10.48
2022-09-23T06:43:27.709Z,10.48
2022-09-23T06:45:53.856Z,10.54
2022-09-23T06:48:20.040Z,10.59
2022-09-23T06:50:46.161Z,10.57
2022-09-23T06:53:12.276Z,10.61
2022-09-23T06:55:38.414Z,10.62
2022-09-23T06:58:04.564Z,10.64
2022-09-23T07:00:30.685Z,10.69
2022-09-23T07:02:56.882Z,10.71
2022-09-23T07:05:23.103Z,10.63
2022-09-23T07:07:49.245Z,10.80
2022-09-23T07:10:15.370Z,10.93
2022-09-23T07:12:41.515Z,10.94
2022-09-23T07:15:07.642Z,11.05
2022-09-23T07:17:33.777Z,11.15
2022-09-23T07:19:59.928Z,11.21
2022-09-23T07:22:26.063Z,11.31
2022-09-23T07:24:54.996Z,11.38
2022-09-23T07:27:21.209Z,11.42
2022-09-23T07:29:48.872Z,11.60
2022-09-23T07:32:15.232Z,11.70
2022-09-23T07:34:41.403Z,11.73
2022-09-23T07:37:07.533Z,11.86
2022-09-23T07:39:33.699Z,11.93
2022-09-23T07:41:59.871Z,12.05
2022-09-23T07:44:26.026Z,12.23
2022-09-23T07:46:52.226Z,12.26
2022-09-23T07:49:18.421Z,12.43
2022-09-23T07:51:44.574Z,12.49
2022-09-23T07:54:10.748Z,12.46
2022-09-23T07:56:36.876Z,12.47
2022-09-23T07:59:03.078Z,12.57
2022-09-23T08:01:29.404Z,12.81
2022-09-23T08:03:55.627Z,13.00
2022-09-23T08:06:21.793Z,13.34
2022-09-23T08:08:52.531Z,13.68
2022-09-23T08:11:19.379Z,13.88
2022-09-23T08:13:45.565Z,14.11
2022-09-23T08:16:11.788Z,14.27
2022-09-23T08:18:37.988Z,14.40
2022-09-23T08:21:04.127Z,14.57
2022-09-23T08:23:30.313Z,14.49
2022-09-23T08:25:58.848Z,14.51
2022-09-23T08:28:25.570Z,14.38
2022-09-23T08:30:51.830Z,14.49
2022-09-23T08:33:23.144Z,14.48
2022-09-23T08:35:49.874Z,14.58
2022-09-23T08:38:15.996Z,14.67
2022-09-23T08:40:42.411Z,14.91
2022-09-23T08:43:08.592Z,15.00
2022-09-23T08:45:34.713Z,15.08
2022-09-23T08:48:00.892Z,15.16
2022-09-23T08:50:27.066Z,15.34
2022-09-23T08:52:53.215Z,15.43
2022-09-23T08:55:19.336Z,15.57
2022-09-23T08:57:57.511Z,15.68
2022-09-23T09:00:31.630Z,15.82
2022-09-23T09:02:57.787Z,15.97
2022-09-23T09:05:23.944Z,15.96
2022-09-23T09:07:50.089Z,15.90
2022-09-23T09:10:16.205Z,15.83
2022-09-23T09:12:42.375Z,15.48
2022-09-23T09:15:08.493Z,15.40
2022-09-23T09:17:35.210Z,15.74
2022-09-23T09:20:01.430Z,15.96
2022-09-23T09:22:27.712Z,16.01
2022-09-23T09:24:53.886Z,16.15
2022-09-23T09:27:20.025Z,16.15
2022-09-23T09:29:46.206Z,16.40
2022-09-23T09:32:12.337Z,16.66
2022-09-23T09:34:38.477Z,16.75
2022-09-23T09:37:07.016Z,16.75
2022-09-23T09:39:33.645Z,16.79
2022-09-23T09:41:59.778Z,16.98
2022-09-23T09:44:25.950Z,16.97
2022-09-23T09:46:52.166Z,17.19
2022-09-23T09:49:18.395Z,17.29
2022-09-23T09:51:44.557Z,17.48
2022-09-23T09:54:10.619Z,17.43
2022-09-23T09:56:36.823Z,17.34
2022-09-23T09:59:03.034Z,17.43
2022-09-23T10:01:29.258Z,17.63
2022-09-23T10:03:57.060Z,17.70
2022-09-23T10:06:25.243Z,17.55
2022-09-23T10:08:51.380Z,17.79
2022-09-23T10:11:17.508Z,18.03
2022-09-23T10:13:43.659Z,18.08
2022-09-23T10:16:09.826Z,18.26
2022-09-23T10:18:35.986Z,18.33
2022-09-23T10:21:02.129Z,18.08
2022-09-23T10:23:28.244Z,17.86
2022-09-23T10:25:54.369Z,17.88
2022-09-23T10:28:20.511Z,17.88
2022-09-23T10:30:46.722Z,18.24
2022-09-23T10:33:12.865Z,18.11
2022-09-23T10:35:38.992Z,18.30
2022-09-23T10:38:05.144Z,18.07
2022-09-23T10:40:31.350Z,18.40
2022-09-23T10:42:57.530Z,18.52
2022-09-23T10:45:23.643Z,18.58
2022-09-23T10:47:50.741Z,18.65
2022-09-23T10:50:16.899Z,18.92
2022-09-23T10:52:43.016Z,18.68
2022-09-23T10:55:09.168Z,18.92
2022-09-23T10:57:35.316Z,19.05
2022-09-23T11:00:01.518Z,19.09
2022-09-23T11:02:27.732Z,19.14
2022-09-23T11:04:53.933Z,19.33
2022-09-23T11:07:20.099Z,19.36
2022-09-23T11:09:46.230Z,19.71
2022-09-23T11:12:12.395Z,19.49
2022-09-23T11:14:38.522Z,19.52
2022-09-23T11:17:04.763Z,19.68
2022-09-23T11:19:31.020Z,19.93
2022-09-23T11:21:57.203Z,20.01
2022-09-23T11:24:23.406Z,20.01
2022-09-23T11:26:49.544Z,19.77
2022-09-23T11:29:15.679Z,20.09
2022-09-23T11:31:41.783Z,20.10
2022-09-23T11:34:08.087Z,20.17
2022-09-23T11:36:34.374Z,20.11
2022-09-23T11:39:00.529Z,19.95
2022-09-23T11:41:26.677Z,20.07
2022-09-23T11:43:52.801Z,20.05
2022-09-23T11:46:19.002Z,20.25
2022-09-23T11:48:45.163Z,20.27
2022-09-23T11:51:11.289Z,20.46
2022-09-23T11:53:37.437Z,20.31
2022-09-23T11:56:03.574Z,20.33
2022-09-23T11:58:29.759Z,20.33
2022-09-23T12:01:00.085Z,20.00
2022-09-23T12:03:40.371Z,20.25
2022-09-23T12:06:07.317Z,20.49
2022-09-23T12:08:33.432Z,20.59
2022-09-23T12:10:59.590Z,20.53
2022-09-23T12:13:25.740Z,20.58
2022-09-23T12:15:51.875Z,20.36
2022-09-23T12:18:22.849Z,20.37
2022-09-23T12:20:49.462Z,20.40
2022-09-23T12:23:15.585Z,20.58
2022-09-23T12:25:41.744Z,20.66
2022-09-23T12:28:07.886Z,20.64
2022-09-23T12:30:34.107Z,20.47
2022-09-23T12:33:00.276Z,20.60
2022-09-23T12:35:26.413Z,20.54
2022-09-23T12:37:52.554Z,20.51
2022-09-23T12:40:18.748Z,20.59
2022-09-23T12:42:44.939Z,20.49
2022-09-23T12:45:11.078Z,20.43
2022-09-23T12:47:37.242Z,20.28
2022-09-23T12:50:03.399Z,20.20
2022-09-23T12:52:29.554Z,20.34
2022-09-23T12:54:55.671Z,20.49
2022-09-23T12:57:21.813Z,20.53
2022-09-23T12:59:48.040Z,20.71
2022-09-23T13:02:14.345Z,20.83
2022-09-23T13:04:40.527Z,20.78
2022-09-23T13:07:06.655Z,20.70
2022-09-23T13:09:32.773Z,20.60
2022-09-23T13:11:58.941Z,20.71
2022-09-23T13:14:27.565Z,20.97
2022-09-23T13:16:54.152Z,21.15
2022-09-23T13:19:20.325Z,21.11
2022-09-23T13:21:46.488Z,20.68
2022-09-23T13:24:12.651Z,20.62
2022-09-23T13:26:38.817Z,20.37
2022-09-23T13:29:04.948Z,20.30
2022-09-23T13:31:31.321Z,20.02
2022-09-23T13:33:57.553Z,20.03
2022-09-23T13:36:23.688Z,19.94
2022-09-23T13:38:49.841Z,19.74
2022-09-23T13:41:15.991Z,19.68
2022-09-23T13:43:42.130Z,19.66
2022-09-23T13:46:08.361Z,19.74
2022-09-23T13:48:34.574Z,19.68
2022-09-23T13:51:00.726Z,19.75
2022-09-23T13:53:26.877Z,19.78
2022-09-23T13:55:53.032Z,19.92
2022-09-23T13:58:19.165Z,19.95
2022-09-23T14:00:45.330Z,20.08
2022-09-23T14:03:11.515Z,20.13
2022-09-23T14:05:37.663Z,20.09
2022-09-23T14:08:03.825Z,19.96
2022-09-23T14:10:29.992Z,19.96
2022-09-23T14:12:56.135Z,19.99
2022-09-23T14:15:22.297Z,20.11
2022-09-23T14:17:48.425Z,20.02
2022-09-23T14:20:14.627Z,19.92
2022-09-23T14:22:40.764Z,20.12
2022-09-23T14:25:08.661Z,19.98
2022-09-23T14:27:34.824Z,20.01
2022-09-23T14:30:00.975Z,19.94
2022-09-23T14:32:27.144Z,20.11
2022-09-23T14:34:53.297Z,20.38
2022-09-23T14:37:25.646Z,20.65
2022-09-23T14:39:57.048Z,20.55
2022-09-23T14:42:23.891Z,20.48
2022-09-23T14:44:50.090Z,20.55
2022-09-23T14:47:16.234Z,20.46
2022-09-23T14:49:42.371Z,20.55
2022-09-23T14:52:08.524Z,20.52
2022-09-23T14:54:34.708Z,20.27
2022-09-23T14:57:00.848Z,20.45
2022-09-23T14:59:26.962Z,20.55
2022-09-23T15:01:53.134Z,20.53
2022-09-23T15:04:19.336Z,20.44
2022-09-23T15:06:45.521Z,20.24
2022-09-23T15:09:11.663Z,19.99
2022-09-23T15:11:37.831Z,19.81
2022-09-23T15:14:33.147Z,19.69
2022-09-23T15:16:50.189Z,19.67
2022-09-23T15:19:16.364Z,19.69
2022-09-23T15:21:42.521Z,19.59
2022-09-23T15:24:08.714Z,19.53
2022-09-23T15:26:34.859Z,19.45
2022-09-23T15:29:00.988Z,19.41
2022-09-23T15:31:27.203Z,19.29
2022-09-23T15:33:53.429Z,19.29
2022-09-23T15:36:19.662Z,19.12
2022-09-23T15:38:45.812Z,18.99
2022-09-23T15:41:11.947Z,18.95
2022-09-23T15:43:38.113Z,18.84
2022-09-23T15:46:04.267Z,18.84
2022-09-23T15:48:30.441Z,18.76
2022-09-23T15:50:56.610Z,18.69
2022-09-23T15:53:22.741Z,18.61
2022-09-23T15:55:48.916Z,18.53
2022-09-23T15:58:15.056Z,18.53
2022-09-23T16:00:41.267Z,18.43
2022-09-23T16:03:07.441Z,18.37
2022-09-23T16:05:47.119Z,18.28
2022-09-23T16:08:13.279Z,18.18
2022-09-23T16:10:39.463Z,18.08
2022-09-23T16:13:05.624Z,18.02
2022-09-23T16:15:32.017Z,18.04
2022-09-23T16:17:58.144Z,18.01
2022-09-23T16:20:24.317Z,17.91
2022-09-23T16:22:50.434Z,17.85
2022-09-23T16:25:16.632Z,17.78
2022-09-23T16:27:42.770Z,17.71
2022-09-23T16:30:08.890Z,17.66
2022-09-23T16:32:35.059Z,17.65
2022-09-23T16:35:01.169Z,17.45
2022-09-23T16:37:27.342Z,17.41
2022-09-23T16:39:53.479Z,17.39
2022-09-23T16:42:19.640Z,17.28
2022-09-23T16:44:45.846Z,17.22
2022-09-23T16:47:11.998Z,17.16
2022-09-23T16:49:38.141Z,17.10
2022-09-23T16:52:04.322Z,17.04
2022-09-23T16:54:30.471Z,16.97
2022-09-23T16:56:56.617Z,16.88
2022-09-23T16:59:22.737Z,16.84
2022-09-23T17:01:48.934Z,16.78
2022-09-23T17:04:15.222Z,16.71
2022-09-23T17:06:41.353Z,16.65
2022-09-23T17:09:07.534Z,16.57
2022-09-23T17:11:34.301Z,16.51
2022-09-23T17:14:00.525Z,16.43
2022-09-23T17:16:26.750Z,16.37
2022-09-23T17:18:52.942Z,16.29
2022-09-23T17:21:19.075Z,16.20
2022-09-23T17:23:45.222Z,16.15
2022-09-23T17:26:11.352Z,16.08
2022-09-23T17:28:37.464Z,15.98
2022-09-23T17:31:03.665Z,15.88
2022-09-23T17:33:29.784Z,15.85
2022-09-23T17:35:55.978Z,15.76
2022-09-23T17:38:25.598Z,15.72
2022-09-23T17:40:54.302Z,15.70
2022-09-23T17:43:20.464Z,15.63
2022-09-23T17:45:46.677Z,15.54
2022-09-23T17:48:12.900Z,15.50
2022-09-23T17:50:39.069Z,15.47
2022-09-23T17:53:05.239Z,15.41
2022-09-23T17:55:31.422Z,15.40
2022-09-23T17:57:57.589Z,15.33
2022-09-23T18:00:23.723Z,15.26
2022-09-23T18:02:49.832Z,15.18
2022-09-23T18:05:15.986Z,15.16
2022-09-23T18:07:42.161Z,15.09
2022-09-23T18:10:08.307Z,15.04
2022-09-23T18:12:37.436Z,15.06
2022-09-23T18:15:03.574Z,15.02
2022-09-23T18:17:29.718Z,14.97
2022-09-23T18:19:55.860Z,14.96
2022-09-23T18:22:24.091Z,14.92
2022-09-23T18:30:24.858Z,14.81
2022-09-23T18:32:51.144Z,14.76
2022-09-23T18:38:07.646Z,14.63
2022-09-23T18:40:34.867Z,14.57
2022-09-23T18:43:01.133Z,14.50
2022-09-23T18:45:30.418Z,14.45
2022-09-23T18:47:56.593Z,14.41
2022-09-23T18:50:24.849Z,14.37
2022-09-23T18:52:51.261Z,14.29
2022-09-23T18:55:17.824Z,14.27
2022-09-23T18:58:02.586Z,14.17
2022-09-23T19:03:23.901Z,14.19
2022-09-23T19:05:50.044Z,14.18
2022-09-23T19:08:23.848Z,14.16
2022-09-23T19:10:53.050Z,14.18
2022-09-23T19:13:19.214Z,14.13
2022-09-23T19:15:45.889Z,14.05
2022-09-23T19:18:12.121Z,14.00
2022-09-23T19:20:38.403Z,13.93
2022-09-23T19:23:10.089Z,13.95
2022-09-23T19:25:37.814Z,13.87
2022-09-23T19:28:03.978Z,13.84
2022-09-23T19:30:30.340Z,13.82
2022-09-23T19:32:59.371Z,13.82
2022-09-23T19:35:25.699Z,13.78
2022-09-23T19:38:01.926Z,13.78
2022-09-23T19:40:28.216Z,13.75
2022-09-23T19:42:56.435Z,13.67
2022-09-23T19:45:22.559Z,13.61
2022-09-23T19:47:48.811Z,13.56
2022-09-23T19:50:14.944Z,13.53
2022-09-23T19:52:52.192Z,13.48
2022-09-23T20:01:00.302Z,13.33
2022-09-23T20:03:26.499Z,13.32
2022-09-23T20:05:55.716Z,13.28
2022-09-23T20:11:16.022Z,13.26
2022-09-23T20:13:42.162Z,13.20
2022-09-23T20:16:23.323Z,13.14
2022-09-23T20:18:49.571Z,13.12
2022-09-23T20:21:15.703Z,13.07
2022-09-23T20:23:41.974Z,13.06
2022-09-23T20:26:08.157Z,13.09
2022-09-23T20:34:14.739Z,13.10
2022-09-23T20:36:40.906Z,13.13
2022-09-23T20:39:07.065Z,13.11
2022-09-23T20:41:33.200Z,13.07
2022-09-23T20:43:59.374Z,13.05
2022-09-23T20:46:25.540Z,12.99
2022-09-23T20:48:51.740Z,12.95
2022-09-23T20:54:15.851Z,12.91
2022-09-23T20:56:41.980Z,12.81
2022-09-23T20:59:08.129Z,12.83
2022-09-23T21:01:34.352Z,12.81
2022-09-23T21:04:00.621Z,12.81
2022-09-23T21:06:26.823Z,12.76
2022-09-23T21:08:52.993Z,12.71
2022-09-23T21:11:19.123Z,12.73
2022-09-23T21:13:45.228Z,12.68
2022-09-23T21:16:11.483Z,12.64
2022-09-23T21:18:38.857Z,12.59
2022-09-23T21:21:05.003Z,12.53
2022-09-23T21:23:31.156Z,12.48
2022-09-23T21:25:57.268Z,12.41
2022-09-23T21:28:23.426Z,12.38
2022-09-23T21:30:51.949Z,12.33
2022-09-23T21:33:18.321Z,12.32
2022-09-23T21:35:44.445Z,12.27
2022-09-23T21:38:10.580Z,12.24
2022-09-23T21:40:36.775Z,12.22
2022-09-23T21:43:03.017Z,12.17
2022-09-23T21:45:29.244Z,12.10
2022-09-23T21:47:55.354Z,12.01
2022-09-23T21:50:21.483Z,11.94
2022-09-23T21:52:47.609Z,11.95
2022-09-23T21:55:13.787Z,11.95
2022-09-23T21:57:39.907Z,11.94
2022-09-23T22:00:06.159Z,11.95
2022-09-23T22:02:32.315Z,11.94
2022-09-23T22:04:58.428Z,11.92
2022-09-23T22:07:24.576Z,11.98
2022-09-23T22:09:50.701Z,12.02
2022-09-23T22:12:16.871Z,12.01
2022-09-23T22:14:43.004Z,12.04
2022-09-23T22:17:09.115Z,12.05
2022-09-23T22:19:35.762Z,12.04
2022-09-23T22:22:02.051Z,12.02
2022-09-23T22:24:28.432Z,12.05
2022-09-23T22:26:54.574Z,12.04
2022-09-23T22:29:20.693Z,12.08
2022-09-23T22:31:47.046Z,12.06
2022-09-23T22:34:31.071Z,12.05
2022-09-23T22:36:59.342Z,12.08
2022-09-23T22:39:25.472Z,12.06
2022-09-23T22:41:51.615Z,12.02
2022-09-23T22:44:17.750Z,12.04
2022-09-23T22:46:43.909Z,12.03
2022-09-23T22:49:10.342Z,12.02
2022-09-23T22:51:36.473Z,12.00
2022-09-23T22:54:02.611Z,12.06
2022-09-23T22:56:28.742Z,12.08
2022-09-23T22:58:54.864Z,12.06
2022-09-23T23:01:21.065Z,12.08
2022-09-23T23:03:47.264Z,12.10
2022-09-23T23:06:13.466Z,12.09
2022-09-23T23:08:39.647Z,12.10
2022-09-23T23:11:05.820Z,12.13
2022-09-23T23:13:31.931Z,12.13
2022-09-23T23:15:58.061Z,12.16
2022-09-23T23:18:26.744Z,12.17
2022-09-23T23:20:53.157Z,12.14
2022-09-23T23:23:19.296Z,12.16
2022-09-23T23:25:45.447Z,12.13
2022-09-23T23:28:11.598Z,12.11
2022-09-23T23:30:37.797Z,12.08
2022-09-23T23:33:03.941Z,12.04
2022-09-23T23:35:30.167Z,12.03
2022-09-23T23:37:56.294Z,12.02
2022-09-23T23:40:22.557Z,12.02
2022-09-23T23:42:48.760Z,12.05
2022-09-23T23:45:14.892Z,12.04
2022-09-23T23:47:41.017Z,12.04
2022-09-23T23:50:07.142Z,12.05
2022-09-23T23:52:33.266Z,12.03
2022-09-23T23:54:59.412Z,12.01
2022-09-23T23:57:25.542Z,12.04
2022-09-23T23:59:51.667Z,12.04
